Time;durP1;ratioP1;P1;durP2;ratioP2;P2;SDS_P1;SDS_P2;PMS_P1;PMS_P2;Temp;Humidity;BMP_temperature;BMP_pressure;BME280_temperature;BME280_humidity;BME280_pressure;Samples;Min_cycle;Max_cycle;Signal;HPM_P1;HPM_P2
2022/04/02 00:00:32;;;;;;;27.97;22.37;;;-0.10;99.90;;;;;;5094898;28;20200;-71
2022/04/02 00:02:59;;;;;;;30.63;21.47;;;0.00;99.90;;;;;;5095549;28;20615;-71
2022/04/02 00:05:27;;;;;;;26.07;21.03;;;-0.10;99.90;;;;;;5095043;28;20273;-71
2022/04/02 00:07:53;;;;;;;28.60;21.03;;;-0.10;99.90;;;;;;5094544;28;20200;-71
2022/04/02 00:10:22;;;;;;;30.80;21.03;;;-0.10;99.90;;;;;;5094606;28;20196;-70
2022/04/02 00:12:48;;;;;;;28.33;20.33;;;-0.10;99.90;;;;;;5094407;28;20709;-71
2022/04/02 00:15:15;;;;;;;25.97;20.57;;;-0.10;99.90;;;;;;5094439;28;20245;-71
2022/04/02 00:17:42;;;;;;;28.83;19.40;;;-0.10;99.90;;;;;;5094832;28;20201;-71
2022/04/02 00:20:09;;;;;;;24.33;18.57;;;-0.10;99.90;;;;;;5094104;28;20541;-71
2022/04/02 00:22:36;;;;;;;28.57;18.80;;;-0.10;99.90;;;;;;5094233;28;20761;-71
2022/04/02 00:25:03;;;;;;;25.70;18.50;;;-0.10;99.90;;;;;;5094308;28;20199;-71
2022/04/02 00:27:31;;;;;;;24.50;17.77;;;-0.10;99.90;;;;;;5094237;28;20252;-71
2022/04/02 00:29:57;;;;;;;23.43;17.70;;;-0.10;99.90;;;;;;5094054;28;20232;-71
2022/04/02 00:32:24;;;;;;;22.93;17.37;;;-0.20;99.90;;;;;;5093937;28;20655;-71
2022/04/02 00:34:50;;;;;;;24.33;17.83;;;-0.20;99.90;;;;;;5094049;28;20247;-71
2022/04/02 00:37:17;;;;;;;24.67;17.90;;;-0.20;99.90;;;;;;5094002;28;20277;-71
2022/04/02 00:39:44;;;;;;;21.80;16.40;;;-0.20;99.90;;;;;;5094685;28;20200;-71
2022/04/02 00:42:10;;;;;;;23.23;17.07;;;-0.20;99.90;;;;;;5095634;28;20537;-72
2022/04/02 00:44:38;;;;;;;25.90;16.63;;;-0.20;99.90;;;;;;5098576;28;20196;-72
2022/04/02 00:47:05;;;;;;;20.17;15.77;;;-0.20;99.90;;;;;;5103516;28;20205;-75
2022/04/02 00:49:32;;;;;;;21.73;16.27;;;-0.20;99.90;;;;;;5100440;28;20203;-71
2022/04/02 00:51:59;;;;;;;21.50;16.90;;;-0.30;99.90;;;;;;5096379;28;20663;-70
2022/04/02 00:54:25;;;;;;;27.77;16.67;;;-0.30;99.90;;;;;;5094693;28;20200;-70
2022/04/02 00:56:54;;;;;;;22.37;14.97;;;-0.30;99.90;;;;;;5095551;28;20224;-70
2022/04/02 00:59:20;;;;;;;20.83;15.60;;;-0.30;99.90;;;;;;5094027;28;20200;-70
2022/04/02 01:01:49;;;;;;;24.27;15.83;;;-0.30;99.90;;;;;;5094578;28;20192;-70
2022/04/02 01:04:15;;;;;;;23.87;14.83;;;-0.30;99.90;;;;;;5094106;28;20350;-71
2022/04/02 01:06:43;;;;;;;23.50;15.40;;;-0.30;99.90;;;;;;5095367;28;20200;-71
2022/04/02 01:09:10;;;;;;;22.37;15.53;;;-0.30;99.90;;;;;;5094462;28;20245;-71
2022/04/02 01:11:38;;;;;;;26.90;15.63;;;-0.30;99.90;;;;;;5094484;28;20200;-71
2022/04/02 01:14:05;;;;;;;26.33;15.73;;;-0.40;99.90;;;;;;5094207;28;20196;-71
2022/04/02 01:16:32;;;;;;;22.90;15.27;;;-0.40;99.90;;;;;;5094240;28;20679;-71
2022/04/02 01:19:01;;;;;;;25.40;15.53;;;-0.40;99.90;;;;;;5094566;28;20564;-71
2022/04/02 01:21:28;;;;;;;22.83;15.73;;;-0.40;99.90;;;;;;5094360;28;20197;-71
2022/04/02 01:23:57;;;;;;;22.97;16.80;;;-0.40;99.90;;;;;;5098086;28;20235;-71
2022/04/02 01:26:23;;;;;;;23.77;16.57;;;-0.40;99.90;;;;;;5099216;28;20200;-71
2022/04/02 01:28:53;;;;;;;23.00;16.03;;;-0.30;99.90;;;;;;5099458;28;20219;-71
2022/04/02 01:31:21;;;;;;;22.87;17.07;;;-0.30;99.90;;;;;;5099790;28;20234;-72
2022/04/02 01:33:49;;;;;;;24.37;16.47;;;-0.40;99.90;;;;;;5100559;28;20657;-70
2022/04/02 01:36:16;;;;;;;23.00;17.83;;;-0.30;99.90;;;;;;5097545;28;20224;-70
2022/04/02 01:38:43;;;;;;;20.67;16.27;;;-0.40;99.90;;;;;;5094519;28;20196;-70
2022/04/02 01:41:11;;;;;;;20.43;15.57;;;-0.30;99.90;;;;;;5094892;28;20222;-70
2022/04/02 01:43:38;;;;;;;27.07;16.73;;;-0.30;99.90;;;;;;5094591;28;20257;-72
2022/04/02 01:46:05;;;;;;;20.40;15.60;;;-0.30;99.90;;;;;;5094300;28;20348;-70
2022/04/02 01:48:32;;;;;;;26.77;15.20;;;-0.30;99.90;;;;;;5094192;28;20301;-70
2022/04/02 01:50:59;;;;;;;27.77;14.33;;;-0.30;99.90;;;;;;5094040;28;20261;-71
2022/04/02 01:53:26;;;;;;;23.83;14.43;;;-0.30;99.90;;;;;;5093662;28;20203;-70
2022/04/02 01:55:53;;;;;;;22.13;13.43;;;-0.40;99.90;;;;;;5093815;28;20269;-72
2022/04/02 01:58:21;;;;;;;20.20;12.00;;;-0.40;99.90;;;;;;5093634;28;20664;-71
2022/04/02 02:00:48;;;;;;;16.07;11.53;;;-0.40;99.90;;;;;;5094241;28;20196;-71
2022/04/02 02:03:15;;;;;;;18.87;12.70;;;-0.40;99.90;;;;;;5096194;28;20651;-71
2022/04/02 02:05:41;;;;;;;22.87;12.27;;;-0.50;99.90;;;;;;5096545;28;20192;-70
2022/04/02 02:08:09;;;;;;;21.27;11.23;;;-0.50;99.90;;;;;;5096764;28;20201;-72
2022/04/02 02:10:36;;;;;;;22.53;12.23;;;-0.50;99.90;;;;;;5097374;28;20216;-70
2022/04/02 02:13:03;;;;;;;20.10;11.83;;;-0.50;99.90;;;;;;5097610;28;20196;-71
2022/04/02 02:15:31;;;;;;;17.10;11.70;;;-0.50;99.90;;;;;;5097320;28;20249;-71
2022/04/02 02:17:58;;;;;;;25.67;12.30;;;-0.50;99.90;;;;;;5097441;28;20213;-70
2022/04/02 02:20:24;;;;;;;18.37;11.40;;;-0.50;99.90;;;;;;5096842;28;20639;-70
2022/04/02 02:22:51;;;;;;;24.97;11.40;;;-0.50;99.90;;;;;;5096907;28;20228;-70
2022/04/02 02:25:19;;;;;;;19.17;11.97;;;-0.50;99.90;;;;;;5096947;28;20192;-70
2022/04/02 02:27:47;;;;;;;15.47;11.63;;;-0.50;99.90;;;;;;5096930;28;20298;-70
2022/04/02 02:30:15;;;;;;;21.30;11.43;;;-0.50;99.90;;;;;;5096890;28;20196;-71
2022/04/02 02:32:45;;;;;;;18.33;10.87;;;-0.50;99.90;;;;;;5096724;28;20196;-70
2022/04/02 02:38:05;;;;;;;18.40;10.93;;;-0.60;99.90;;;;;;5096683;28;20269;-70
2022/04/02 02:40:32;;;;;;;15.87;12.27;;;-0.50;99.90;;;;;;5096627;28;20223;-71
2022/04/02 02:42:59;;;;;;;17.87;11.37;;;-0.60;99.90;;;;;;5096699;28;20532;-72
2022/04/02 02:45:25;;;;;;;22.23;11.33;;;-0.60;99.90;;;;;;5096136;28;20725;-70
2022/04/02 02:47:54;;;;;;;17.57;12.87;;;-0.60;99.90;;;;;;5096681;28;20204;-71
2022/04/02 02:50:21;;;;;;;18.67;11.77;;;-0.60;99.90;;;;;;5096424;28;20218;-71
2022/04/02 02:52:48;;;;;;;16.93;11.97;;;-0.60;99.90;;;;;;5096275;28;20196;-71
2022/04/02 02:55:14;;;;;;;17.70;12.20;;;-0.60;99.90;;;;;;5096265;28;20672;-71
2022/04/02 02:57:42;;;;;;;20.63;11.50;;;-0.60;99.90;;;;;;5096025;28;20270;-71
2022/04/02 03:00:11;;;;;;;16.53;11.10;;;-0.60;99.90;;;;;;5096086;28;20201;-73
2022/04/02 03:02:38;;;;;;;15.23;11.20;;;-0.60;99.90;;;;;;5096336;28;20199;-71
2022/04/02 03:05:10;;;;;;;17.47;11.17;;;-0.60;99.90;;;;;;5096232;28;20193;-71
2022/04/02 03:07:37;;;;;;;15.53;10.97;;;-0.60;99.90;;;;;;5096090;28;20219;-71
2022/04/02 03:10:05;;;;;;;18.37;11.23;;;-0.60;99.90;;;;;;5096914;28;20258;-72
2022/04/02 03:12:32;;;;;;;15.10;11.17;;;-0.60;99.90;;;;;;5097890;28;20250;-71
2022/04/02 03:14:59;;;;;;;15.93;10.83;;;-0.60;99.90;;;;;;5096879;28;20270;-71
2022/04/02 03:17:26;;;;;;;19.83;11.23;;;-0.60;99.90;;;;;;5095849;28;20221;-71
2022/04/02 03:19:52;;;;;;;16.33;10.53;;;-0.60;99.90;;;;;;5096344;28;20196;-71
2022/04/02 03:22:21;;;;;;;22.07;11.07;;;-0.60;99.90;;;;;;5098801;28;20228;-72
2022/04/02 03:24:48;;;;;;;17.87;10.90;;;-0.70;99.90;;;;;;5095409;28;20203;-70
2022/04/02 03:27:15;;;;;;;19.90;12.17;;;-0.70;99.90;;;;;;5095321;28;20560;-70
2022/04/02 03:29:41;;;;;;;20.10;11.90;;;-0.70;99.90;;;;;;5095271;28;20712;-71
2022/04/02 03:32:10;;;;;;;22.50;12.50;;;-0.70;99.90;;;;;;5095326;28;20254;-71
2022/04/02 03:34:37;;;;;;;15.63;12.10;;;-0.70;99.90;;;;;;5095560;28;20203;-71
2022/04/02 03:37:04;;;;;;;17.20;12.70;;;-0.70;99.90;;;;;;5095593;28;20212;-71
2022/04/02 03:39:32;;;;;;;18.50;12.17;;;-0.70;99.90;;;;;;5096642;28;20207;-71
2022/04/02 03:41:59;;;;;;;20.10;12.97;;;-0.70;99.90;;;;;;5101256;28;20196;-71
2022/04/02 03:44:25;;;;;;;18.40;12.73;;;-0.70;99.90;;;;;;5102698;28;20196;-71
2022/04/02 03:47:10;;;;;;;16.93;12.00;;;-0.70;99.90;;;;;;5102162;28;20274;-72
2022/04/02 03:49:37;;;;;;;15.13;11.40;;;-0.70;99.90;;;;;;5095884;28;20200;-71
2022/04/02 03:52:05;;;;;;;18.77;11.27;;;-0.70;99.90;;;;;;5096535;28;20196;-71
2022/04/02 03:54:35;;;;;;;17.57;11.87;;;-0.70;99.90;;;;;;5095089;28;20196;-71
2022/04/02 03:57:02;;;;;;;15.33;11.23;;;-0.70;99.90;;;;;;5094707;28;20718;-71
2022/04/02 03:59:30;;;;;;;16.00;11.90;;;-0.70;99.90;;;;;;5094719;28;20196;-70
2022/04/02 04:01:56;;;;;;;15.60;12.17;;;-0.70;99.90;;;;;;5094616;28;20705;-70
2022/04/02 04:04:24;;;;;;;18.40;13.67;;;-0.70;99.90;;;;;;5094841;28;20265;-70
2022/04/02 04:06:50;;;;;;;19.60;13.00;;;-0.70;99.90;;;;;;5094747;28;20197;-70
2022/04/02 04:09:17;;;;;;;20.20;13.43;;;-0.70;99.90;;;;;;5094809;28;20612;-70
2022/04/02 04:11:45;;;;;;;16.50;12.40;;;-0.70;99.90;;;;;;5094968;28;20230;-70
2022/04/02 04:14:12;;;;;;;16.87;12.37;;;-0.70;99.90;;;;;;5095194;28;20196;-70
2022/04/02 04:16:39;;;;;;;16.03;12.27;;;-0.70;99.90;;;;;;5095706;28;20636;-71
2022/04/02 04:19:05;;;;;;;15.37;12.20;;;-0.70;99.90;;;;;;5098462;28;20197;-70
2022/04/02 04:21:34;;;;;;;17.93;12.50;;;-0.70;99.90;;;;;;5101512;28;20254;-71
2022/04/02 04:24:00;;;;;;;16.50;12.23;;;-0.70;99.90;;;;;;5101231;28;20249;-71
2022/04/02 04:26:27;;;;;;;12.97;11.27;;;-0.70;99.90;;;;;;5095929;28;20196;-70
2022/04/02 04:28:55;;;;;;;15.77;11.67;;;-0.70;99.90;;;;;;5094316;28;20196;-71
2022/04/02 04:31:22;;;;;;;17.67;11.00;;;-0.70;99.90;;;;;;5095109;28;20254;-71
2022/04/02 04:33:50;;;;;;;13.80;11.40;;;-0.70;99.90;;;;;;5094530;28;20222;-70
2022/04/02 04:36:18;;;;;;;14.37;11.97;;;-0.70;99.90;;;;;;5095231;28;20246;-71
2022/04/02 04:38:46;;;;;;;12.40;11.10;;;-0.80;99.90;;;;;;5094617;28;20220;-70
2022/04/02 04:41:12;;;;;;;17.43;11.70;;;-0.80;99.90;;;;;;5094312;28;20249;-71
2022/04/02 04:43:41;;;;;;;12.97;11.57;;;-0.80;99.90;;;;;;5093966;28;20291;-71
2022/04/02 04:46:09;;;;;;;13.93;11.47;;;-0.80;99.90;;;;;;5094046;28;20207;-71
2022/04/02 04:48:36;;;;;;;16.17;11.53;;;-0.80;99.90;;;;;;5094408;28;20200;-70
2022/04/02 04:51:03;;;;;;;18.43;11.47;;;-0.80;99.90;;;;;;5094074;28;20207;-71
2022/04/02 04:53:30;;;;;;;16.07;11.27;;;-0.80;99.90;;;;;;5094072;28;20200;-71
2022/04/02 04:55:56;;;;;;;12.87;11.10;;;-0.80;99.90;;;;;;5093888;28;20204;-71
2022/04/02 04:58:23;;;;;;;16.30;11.20;;;-0.80;99.90;;;;;;5093945;28;20224;-71
2022/04/02 05:00:50;;;;;;;15.60;11.27;;;-0.90;99.90;;;;;;5094136;28;20204;-70
2022/04/02 05:03:18;;;;;;;18.00;11.17;;;-0.80;99.90;;;;;;5094029;28;20253;-71
2022/04/02 05:05:45;;;;;;;16.67;11.87;;;-0.80;99.90;;;;;;5093853;28;20275;-71
2022/04/02 05:08:11;;;;;;;14.63;11.33;;;-0.80;99.90;;;;;;5094155;28;20201;-70
2022/04/02 05:10:40;;;;;;;18.90;11.00;;;-0.80;99.90;;;;;;5093901;28;20245;-71
2022/04/02 05:13:08;;;;;;;17.33;11.67;;;-0.80;99.90;;;;;;5093860;28;20207;-70
2022/04/02 05:15:35;;;;;;;19.10;11.43;;;-0.80;99.90;;;;;;5093948;28;20196;-70
2022/04/02 05:18:02;;;;;;;14.33;11.30;;;-0.80;99.90;;;;;;5093979;28;20223;-70
2022/04/02 05:20:30;;;;;;;14.20;11.23;;;-0.80;99.90;;;;;;5093831;28;20200;-70
2022/04/02 05:22:57;;;;;;;15.07;11.03;;;-0.80;99.90;;;;;;5093404;28;20224;-71
2022/04/02 05:25:24;;;;;;;16.47;12.10;;;-0.70;99.90;;;;;;5093973;28;20250;-71
2022/04/02 05:27:50;;;;;;;13.33;11.37;;;-0.80;99.90;;;;;;5093718;28;20594;-71
2022/04/02 05:30:17;;;;;;;18.73;12.53;;;-0.70;99.90;;;;;;5094225;28;20200;-70
2022/04/02 05:32:43;;;;;;;19.73;12.17;;;-0.70;99.90;;;;;;5093829;28;20558;-71
2022/04/02 05:35:10;;;;;;;14.27;12.60;;;-0.70;99.90;;;;;;5095008;28;20242;-71
2022/04/02 05:37:44;;;;;;;17.33;13.13;;;-0.70;99.90;;;;;;5095457;28;20254;-71
2022/04/02 05:40:12;;;;;;;14.80;12.40;;;-0.70;99.90;;;;;;5094062;28;20200;-71
2022/04/02 05:42:38;;;;;;;18.40;12.20;;;-0.70;99.90;;;;;;5096258;28;20265;-71
2022/04/02 05:45:06;;;;;;;16.40;12.20;;;-0.70;99.90;;;;;;5098213;28;20621;-70
2022/04/02 05:47:41;;;;;;;16.60;11.93;;;-0.60;99.90;;;;;;5098086;28;20269;-71
2022/04/02 05:50:10;;;;;;;17.13;12.13;;;-0.70;99.90;;;;;;5098048;28;20199;-71
2022/04/02 05:52:37;;;;;;;15.37;12.27;;;-0.60;99.90;;;;;;5098109;28;20245;-71
2022/04/02 05:55:06;;;;;;;19.40;12.77;;;-0.60;99.90;;;;;;5098493;28;20643;-70
2022/04/02 05:57:32;;;;;;;21.37;12.50;;;-0.60;99.90;;;;;;5098372;28;20289;-70
2022/04/02 05:59:59;;;;;;;19.73;12.90;;;-0.50;99.90;;;;;;5098020;28;20204;-70
2022/04/02 06:02:27;;;;;;;17.37;12.80;;;-0.50;99.90;;;;;;5097799;28;20196;-70
2022/04/02 06:04:55;;;;;;;14.27;11.50;;;-0.50;99.90;;;;;;5097775;28;20283;-70
2022/04/02 06:07:21;;;;;;;14.53;12.57;;;-0.40;99.90;;;;;;5097721;28;20540;-71
2022/04/02 06:09:48;;;;;;;17.93;12.87;;;-0.40;99.90;;;;;;5097272;28;20196;-70
2022/04/02 06:12:16;;;;;;;15.97;12.30;;;-0.40;99.90;;;;;;5097127;28;20208;-70
2022/04/02 06:14:43;;;;;;;15.10;11.90;;;-0.40;99.90;;;;;;5099610;28;20196;-71
2022/04/02 06:17:09;;;;;;;16.77;11.90;;;-0.40;99.90;;;;;;5099347;28;20197;-71
2022/04/02 06:19:36;;;;;;;16.83;11.90;;;-0.30;99.90;;;;;;5098765;28;20201;-71
2022/04/02 06:22:06;;;;;;;18.90;12.13;;;-0.20;99.90;;;;;;5097396;28;20236;-71
2022/04/02 06:24:33;;;;;;;14.00;11.53;;;-0.10;99.90;;;;;;5096954;28;20555;-71
2022/04/02 06:26:59;;;;;;;14.13;11.67;;;-0.10;99.90;;;;;;5097237;28;20597;-71
2022/04/02 06:29:27;;;;;;;15.90;11.00;;;0.00;99.90;;;;;;5096910;28;20192;-70
2022/04/02 06:31:54;;;;;;;12.63;10.60;;;-0.10;99.90;;;;;;5096238;28;20644;-70
2022/04/02 06:34:21;;;;;;;12.97;11.00;;;0.00;99.90;;;;;;5098215;28;20192;-70
2022/04/02 06:36:47;;;;;;;12.87;10.80;;;0.00;99.90;;;;;;5097112;28;20200;-71
2022/04/02 06:39:14;;;;;;;13.90;11.40;;;0.00;99.90;;;;;;5097158;28;20224;-71
2022/04/02 06:41:41;;;;;;;14.33;10.80;;;0.10;99.90;;;;;;5097523;28;20200;-71
2022/04/02 06:44:09;;;;;;;13.03;11.30;;;0.20;99.90;;;;;;5096491;28;20197;-70
2022/04/02 06:46:38;;;;;;;14.07;11.37;;;0.20;99.90;;;;;;5094944;28;20196;-70
2022/04/02 06:49:06;;;;;;;12.93;11.50;;;0.10;99.90;;;;;;5096940;28;20192;-71
2022/04/02 06:51:33;;;;;;;13.37;10.00;;;0.10;99.90;;;;;;5097333;28;20204;-70
2022/04/02 06:54:00;;;;;;;12.00;10.77;;;0.10;99.90;;;;;;5097617;28;20211;-71
2022/04/02 06:56:26;;;;;;;15.03;11.57;;;0.30;99.90;;;;;;5099444;28;20724;-71
2022/04/02 06:58:53;;;;;;;13.80;11.47;;;0.40;99.90;;;;;;5099003;28;20245;-71
2022/04/02 07:01:20;;;;;;;12.70;10.47;;;0.30;99.90;;;;;;5099164;28;20200;-71
2022/04/02 07:03:48;;;;;;;15.83;11.07;;;0.50;99.90;;;;;;5098109;28;20601;-70
2022/04/02 07:06:14;;;;;;;15.70;10.27;;;0.60;99.90;;;;;;5098354;28;20197;-71
2022/04/02 07:08:41;;;;;;;15.00;10.63;;;0.50;99.90;;;;;;5098384;28;20597;-70
2022/04/02 07:11:08;;;;;;;11.90;10.07;;;0.50;99.90;;;;;;5099024;28;20197;-70
2022/04/02 07:13:34;;;;;;;11.03;9.70;;;0.60;99.90;;;;;;5095672;28;20261;-70
2022/04/02 07:16:02;;;;;;;15.57;10.57;;;0.40;99.90;;;;;;5095809;28;20196;-71
2022/04/02 07:18:29;;;;;;;14.93;10.87;;;0.60;99.90;;;;;;5095276;28;20556;-69
2022/04/02 07:20:59;;;;;;;13.30;10.30;;;0.70;99.90;;;;;;5095538;28;20254;-71
2022/04/02 07:23:26;;;;;;;12.10;10.50;;;0.40;99.90;;;;;;5095058;28;20228;-72
2022/04/02 07:25:55;;;;;;;12.57;9.67;;;0.60;99.90;;;;;;5095303;28;20444;-69
2022/04/02 07:28:23;;;;;;;13.70;9.93;;;0.70;99.90;;;;;;5095168;28;20246;-70
2022/04/02 07:30:50;;;;;;;16.53;10.50;;;0.80;99.90;;;;;;5095118;28;20205;-70
2022/04/02 07:33:17;;;;;;;16.57;12.23;;;0.80;99.90;;;;;;5095315;28;20197;-70
2022/04/02 07:35:50;;;;;;;12.10;9.60;;;1.00;99.90;;;;;;5095227;28;20273;-70
2022/04/02 07:38:22;;;;;;;13.73;9.33;;;0.90;99.90;;;;;;5095428;28;20274;-71
2022/04/02 07:40:51;;;;;;;11.40;9.40;;;1.00;99.90;;;;;;5095417;28;20231;-71
2022/04/02 07:43:26;;;;;;;13.13;9.63;;;0.90;99.90;;;;;;5095316;28;20203;-71
2022/04/02 07:46:06;;;;;;;16.53;9.40;;;1.00;99.90;;;;;;5095439;28;20202;-70
2022/04/02 07:48:38;;;;;;;11.63;9.00;;;0.90;99.90;;;;;;5096028;28;20193;-70
2022/04/02 07:51:11;;;;;;;12.67;8.97;;;0.90;99.90;;;;;;5095762;28;20203;-70
2022/04/02 07:53:44;;;;;;;11.47;9.33;;;0.60;99.90;;;;;;5095724;28;20249;-70
2022/04/02 07:56:14;;;;;;;12.63;9.20;;;1.00;99.90;;;;;;5095453;28;20196;-69
2022/04/02 07:58:45;;;;;;;15.43;9.37;;;1.20;99.90;;;;;;5095003;28;20235;-70
2022/04/02 08:01:15;;;;;;;11.97;9.07;;;1.00;99.90;;;;;;5094926;28;20192;-71
2022/04/02 08:03:44;;;;;;;11.50;9.43;;;1.10;99.90;;;;;;5095380;28;20226;-70
2022/04/02 08:06:12;;;;;;;11.70;9.27;;;1.00;99.90;;;;;;5095094;28;20196;-70
2022/04/02 08:08:41;;;;;;;10.60;8.80;;;1.10;99.90;;;;;;5094899;28;20568;-70
2022/04/02 08:11:09;;;;;;;11.50;8.33;;;0.90;99.90;;;;;;5094688;28;20193;-70
2022/04/02 08:13:37;;;;;;;11.37;8.67;;;1.00;99.90;;;;;;5094624;28;20239;-70
2022/04/02 08:16:05;;;;;;;14.80;8.47;;;0.80;99.90;;;;;;5094793;28;20201;-69
2022/04/02 08:18:31;;;;;;;9.10;8.13;;;1.00;99.90;;;;;;5094600;28;20216;-69
2022/04/02 08:20:58;;;;;;;11.43;8.00;;;0.90;99.90;;;;;;5094231;28;20196;-70
2022/04/02 08:23:25;;;;;;;14.47;8.40;;;0.90;99.90;;;;;;5094351;28;20592;-70
2022/04/02 08:26:03;;;;;;;11.47;7.73;;;1.10;99.90;;;;;;5094516;28;20192;-70
2022/04/02 08:28:45;;;;;;;8.77;7.83;;;0.70;99.90;;;;;;5094492;28;20211;-69
2022/04/02 08:31:21;;;;;;;12.37;8.43;;;1.10;99.90;;;;;;5094487;28;20250;-69
2022/04/02 08:33:57;;;;;;;11.80;7.33;;;1.50;99.90;;;;;;5094220;28;20196;-70
2022/04/02 08:36:28;;;;;;;9.33;7.83;;;1.70;99.90;;;;;;5094005;28;20603;-69
2022/04/02 08:39:02;;;;;;;7.73;6.87;;;2.00;99.90;;;;;;5093855;28;20255;-69
2022/04/02 08:41:54;;;;;;;12.03;7.37;;;1.80;99.90;;;;;;5094016;28;20541;-70
2022/04/02 08:45:01;;;;;;;10.70;7.70;;;1.70;99.90;;;;;;5094154;28;20287;-69
2022/04/02 08:48:00;;;;;;;10.87;7.23;;;1.90;99.90;;;;;;5072827;28;20228;-69
2022/04/02 08:50:30;;;;;;;7.90;7.10;;;1.70;99.90;;;;;;5093799;28;20192;-70
2022/04/02 08:52:58;;;;;;;9.63;7.53;;;1.40;99.90;;;;;;5092516;28;20196;-70
2022/04/02 08:55:38;;;;;;;10.57;7.47;;;1.20;99.90;;;;;;5094065;28;20560;-70
2022/04/02 08:58:11;;;;;;;11.47;7.93;;;0.80;99.90;;;;;;5093547;28;20219;-70
2022/04/02 09:00:43;;;;;;;9.67;8.03;;;1.20;99.90;;;;;;5094072;28;20224;-70
2022/04/02 09:03:39;;;;;;;9.43;8.37;;;1.40;99.90;;;;;;5093685;28;20245;-71
2022/04/02 09:06:44;;;;;;;10.70;8.30;;;1.50;99.90;;;;;;5093794;28;20200;-71
2022/04/02 09:09:20;;;;;;;10.77;8.20;;;1.70;99.90;;;;;;5093572;28;20204;-72
2022/04/02 09:12:13;;;;;;;11.20;8.23;;;1.70;99.90;;;;;;5093518;28;20241;-71
2022/04/02 09:15:06;;;;;;;11.10;8.70;;;1.90;99.90;;;;;;5093449;28;20192;-69
2022/04/02 09:17:36;;;;;;;10.40;8.23;;;2.10;99.90;;;;;;5095119;28;20196;-70
2022/04/02 09:20:43;;;;;;;10.23;8.20;;;2.10;99.90;;;;;;5097309;28;20780;-71
2022/04/02 09:23:15;;;;;;;10.80;7.57;;;2.00;99.90;;;;;;5097517;28;20231;-70
2022/04/02 09:26:20;;;;;;;12.97;7.60;;;1.90;99.90;;;;;;5099322;28;20200;-70
2022/04/02 09:29:01;;;;;;;8.90;8.00;;;1.80;99.90;;;;;;5098940;28;20200;-68
2022/04/02 09:32:19;;;;;;;17.50;9.13;;;2.00;99.90;;;;;;5097368;28;20200;-68
2022/04/02 09:35:30;;;;;;;8.97;8.07;;;1.70;99.90;;;;;;5054584;28;20205;-68
2022/04/02 09:38:19;;;;;;;9.57;8.33;;;1.60;99.90;;;;;;5054489;28;20209;-69
2022/04/02 09:40:48;;;;;;;11.43;8.87;;;2.00;99.90;;;;;;5092437;28;20196;-69
2022/04/02 09:43:27;;;;;;;14.17;8.97;;;2.20;99.90;;;;;;5096982;28;20199;-69
2022/04/02 09:46:11;;;;;;;12.37;9.73;;;1.80;99.90;;;;;;5096922;28;20200;-68
2022/04/02 09:48:51;;;;;;;9.20;8.30;;;2.00;99.90;;;;;;5096953;28;20562;-68
2022/04/02 09:51:21;;;;;;;11.13;8.20;;;2.10;99.90;;;;;;5097010;28;20200;-69
2022/04/02 09:54:04;;;;;;;14.90;8.83;;;2.30;99.90;;;;;;5096957;28;20287;-68
2022/04/02 09:56:40;;;;;;;11.87;8.43;;;2.40;99.90;;;;;;5096649;28;20207;-69
2022/04/02 09:59:09;;;;;;;10.73;8.97;;;2.50;99.90;;;;;;5096558;28;20771;-70
2022/04/02 10:01:46;;;;;;;9.23;8.23;;;2.60;99.90;;;;;;5096787;28;20199;-68
2022/04/02 10:04:39;;;;;;;12.23;8.27;;;2.70;99.90;;;;;;5096481;28;20216;-69
2022/04/02 10:07:19;;;;;;;10.13;7.90;;;2.70;99.90;;;;;;5096540;28;20567;-68
2022/04/02 10:09:50;;;;;;;9.83;8.17;;;2.50;99.90;;;;;;5096709;28;20200;-69
2022/04/02 10:12:18;;;;;;;10.23;8.37;;;2.80;99.90;;;;;;5096980;28;20563;-68
2022/04/02 10:14:46;;;;;;;11.57;8.40;;;2.60;99.90;;;;;;5096748;28;20197;-68
2022/04/02 10:17:14;;;;;;;11.00;8.63;;;2.80;99.90;;;;;;5096322;28;20610;-68
2022/04/02 10:19:41;;;;;;;9.30;8.10;;;3.00;99.90;;;;;;5096121;28;20216;-68
2022/04/02 10:22:10;;;;;;;12.50;9.10;;;2.80;99.90;;;;;;5096056;28;20228;-68
2022/04/02 10:24:38;;;;;;;11.47;8.23;;;3.00;99.90;;;;;;5096195;28;20247;-68
2022/04/02 10:27:07;;;;;;;8.97;8.00;;;2.80;99.90;;;;;;5095894;28;20198;-68
2022/04/02 10:30:11;;;;;;;10.97;7.43;;;2.60;99.90;;;;;;5095830;28;20303;-68
2022/04/02 10:32:57;;;;;;;9.50;8.37;;;2.60;99.90;;;;;;5074237;28;20574;-67
2022/04/02 10:35:26;;;;;;;10.40;8.27;;;2.60;99.90;;;;;;5096097;28;20284;-69
2022/04/02 10:38:06;;;;;;;11.30;8.47;;;2.50;99.90;;;;;;5096059;28;20225;-69
2022/04/02 10:40:35;;;;;;;11.37;8.20;;;2.30;99.90;;;;;;5095889;28;20289;-68
2022/04/02 10:43:06;;;;;;;9.90;8.37;;;2.60;99.90;;;;;;5096006;28;20541;-67
2022/04/02 10:45:36;;;;;;;11.57;9.00;;;2.20;99.90;;;;;;5095929;28;20193;-68
2022/04/02 10:48:10;;;;;;;10.63;9.07;;;2.40;99.90;;;;;;5095832;28;20201;-68
2022/04/02 10:50:37;;;;;;;9.20;8.30;;;2.90;99.90;;;;;;5095798;28;20202;-68
2022/04/02 10:53:06;;;;;;;11.20;9.07;;;2.70;99.90;;;;;;5095814;28;20197;-67
2022/04/02 10:55:33;;;;;;;11.67;8.63;;;2.90;99.90;;;;;;5095653;28;20203;-69
2022/04/02 10:58:00;;;;;;;9.93;8.93;;;3.10;99.90;;;;;;5095567;28;20540;-69
2022/04/02 11:00:28;;;;;;;11.83;9.33;;;3.20;99.90;;;;;;5095508;28;20222;-68
2022/04/02 11:03:02;;;;;;;8.90;8.07;;;3.40;99.90;;;;;;5095540;28;20200;-69
2022/04/02 11:05:35;;;;;;;11.20;8.80;;;3.30;99.90;;;;;;5095333;28;20568;-68
2022/04/02 11:08:06;;;;;;;11.43;9.10;;;3.50;99.90;;;;;;5095274;28;20671;-67
2022/04/02 11:10:35;;;;;;;11.40;8.87;;;3.50;99.90;;;;;;5095451;28;20223;-68
2022/04/02 11:13:04;;;;;;;10.13;9.13;;;3.30;99.90;;;;;;5095245;28;20203;-68
2022/04/02 11:15:31;;;;;;;11.13;9.23;;;3.40;99.90;;;;;;5095125;28;20203;-68
2022/04/02 11:17:59;;;;;;;11.00;9.90;;;3.50;99.90;;;;;;5095124;28;20227;-69
2022/04/02 11:20:28;;;;;;;10.83;9.43;;;3.40;99.90;;;;;;5095411;28;20284;-69
2022/04/02 11:23:19;;;;;;;10.47;9.47;;;3.20;99.90;;;;;;5095083;28;20263;-69
2022/04/02 11:25:49;;;;;;;10.77;9.23;;;3.40;99.90;;;;;;5095386;28;20245;-69
2022/04/02 11:28:17;;;;;;;10.70;9.60;;;3.20;99.90;;;;;;5095267;28;20199;-70
2022/04/02 11:30:45;;;;;;;10.47;9.47;;;3.50;99.90;;;;;;5095369;28;20196;-69
2022/04/02 11:33:15;;;;;;;12.33;10.33;;;3.70;99.90;;;;;;5095166;28;20236;-69
2022/04/02 11:35:46;;;;;;;11.07;9.97;;;3.40;99.90;;;;;;5095096;28;20203;-71
2022/04/02 11:38:34;;;;;;;11.23;9.97;;;2.90;99.90;;;;;;5094775;28;20620;-72
2022/04/02 11:41:08;;;;;;;10.33;9.33;;;3.30;99.90;;;;;;5093845;28;20204;-70
2022/04/02 11:43:37;;;;;;;10.53;9.53;;;3.20;99.90;;;;;;5095032;28;20289;-70
2022/04/02 11:46:06;;;;;;;10.97;9.87;;;3.30;99.90;;;;;;5094800;28;20541;-70
2022/04/02 11:48:34;;;;;;;11.10;10.00;;;3.50;99.90;;;;;;5094652;28;20658;-70
2022/04/02 11:51:14;;;;;;;10.53;9.10;;;3.80;99.90;;;;;;5094514;28;20247;-73
2022/04/02 11:53:42;;;;;;;10.50;9.20;;;3.70;99.90;;;;;;5094845;28;20203;-69
2022/04/02 11:56:27;;;;;;;9.63;8.67;;;3.70;99.90;;;;;;5094666;28;20241;-69
2022/04/02 11:58:54;;;;;;;9.47;8.57;;;4.10;99.90;;;;;;5094397;28;20321;-71
2022/04/02 12:01:22;;;;;;;10.37;8.97;;;3.90;99.90;;;;;;5094264;28;20664;-70
2022/04/02 12:04:07;;;;;;;8.77;7.90;;;3.50;99.90;;;;;;5094541;28;20202;-71
2022/04/02 12:06:35;;;;;;;10.70;8.70;;;3.60;99.90;;;;;;5095288;28;20200;-72
2022/04/02 12:09:12;;;;;;;10.10;8.90;;;3.80;99.90;;;;;;5095791;28;20200;-72
2022/04/02 12:11:41;;;;;;;10.43;9.00;;;3.90;99.90;;;;;;5096028;28;20198;-69
2022/04/02 12:14:08;;;;;;;10.50;9.17;;;3.40;99.90;;;;;;5095753;28;20262;-69
2022/04/02 12:16:38;;;;;;;9.80;8.90;;;3.20;99.90;;;;;;5094537;28;20196;-69
2022/04/02 12:19:05;;;;;;;9.10;8.20;;;3.20;99.90;;;;;;5094456;28;20197;-70
2022/04/02 12:21:33;;;;;;;9.10;8.20;;;3.40;99.90;;;;;;5094006;28;20234;-70
2022/04/02 12:24:01;;;;;;;9.43;8.37;;;3.30;99.90;;;;;;5093815;28;20228;-70
2022/04/02 12:26:29;;;;;;;8.50;7.60;;;3.70;99.90;;;;;;5094240;28;20597;-70
2022/04/02 12:28:57;;;;;;;8.73;7.90;;;3.90;99.90;;;;;;5094037;28;20254;-70
2022/04/02 12:31:27;;;;;;;8.23;7.43;;;4.30;99.90;;;;;;5094109;28;20208;-70
2022/04/02 12:33:54;;;;;;;8.80;7.27;;;4.50;99.90;;;;;;5094062;28;20283;-70
2022/04/02 12:36:30;;;;;;;7.90;7.10;;;4.30;99.90;;;;;;5093817;28;20246;-69
2022/04/02 12:39:01;;;;;;;7.93;7.13;;;4.40;99.90;;;;;;5093961;28;20200;-70
2022/04/02 12:41:29;;;;;;;8.83;6.70;;;4.60;99.90;;;;;;5093970;28;20204;-70
2022/04/02 12:44:00;;;;;;;8.30;6.33;;;5.10;99.90;;;;;;5093966;28;20196;-70
2022/04/02 12:46:28;;;;;;;8.03;6.50;;;5.10;99.90;;;;;;5093693;28;20197;-69
2022/04/02 12:48:56;;;;;;;8.77;6.97;;;5.30;99.90;;;;;;5093423;28;20204;-69
2022/04/02 12:51:24;;;;;;;7.27;6.57;;;5.00;99.90;;;;;;5093104;28;20200;-69
2022/04/02 12:53:59;;;;;;;9.23;7.07;;;5.00;99.90;;;;;;5093013;28;20209;-70
2022/04/02 12:56:27;;;;;;;8.33;7.30;;;4.70;99.90;;;;;;5093349;28;20192;-70